sensor_id;sensor_type;location;lat;lon;timestamp;pressure;altitude;pressure_sealevel;temperature;humidity
40384;BME280;26097;42.366;23.818;2023-02-24T00:01:13;94169.19;;;3.93;100.00
40384;BME280;26097;42.366;23.818;2023-02-24T00:04:19;94165.84;;;3.91;100.00
40384;BME280;26097;42.366;23.818;2023-02-24T00:07:20;94165.84;;;3.91;100.00
40384;BME280;26097;42.366;23.818;2023-02-24T00:10:20;94165.94;;;3.89;100.00
40384;BME280;26097;42.366;23.818;2023-02-24T00:13:20;94162.50;;;3.89;100.00
40384;BME280;26097;42.366;23.818;2023-02-24T00:16:21;94153.84;;;3.90;100.00
40384;BME280;26097;42.366;23.818;2023-02-24T00:19:28;94159.00;;;3.90;100.00
40384;BME280;26097;42.366;23.818;2023-02-24T00:22:31;94162.06;;;3.98;100.00
40384;BME280;26097;42.366;23.818;2023-02-24T00:25:32;94155.09;;;4.00;100.00
40384;BME280;26097;42.366;23.818;2023-02-24T00:28:33;94148.53;;;3.93;100.00
40384;BME280;26097;42.366;23.818;2023-02-24T00:31:35;94150.75;;;4.00;100.00
40384;BME280;26097;42.366;23.818;2023-02-24T00:34:38;94152.28;;;4.05;100.00
40384;BME280;26097;42.366;23.818;2023-02-24T00:37:38;94150.09;;;3.97;100.00
40384;BME280;26097;42.366;23.818;2023-02-24T00:40:39;94148.41;;;3.96;100.00
40384;BME280;26097;42.366;23.818;2023-02-24T00:43:41;94145.97;;;3.93;100.00
40384;BME280;26097;42.366;23.818;2023-02-24T00:46:48;94146.81;;;3.93;100.00
40384;BME280;26097;42.366;23.818;2023-02-24T00:49:49;94141.50;;;3.96;100.00
40384;BME280;26097;42.366;23.818;2023-02-24T00:52:49;94138.00;;;3.97;100.00
40384;BME280;26097;42.366;23.818;2023-02-24T00:55:58;94131.41;;;3.92;100.00
40384;BME280;26097;42.366;23.818;2023-02-24T00:59:01;94129.75;;;3.91;100.00
40384;BME280;26097;42.366;23.818;2023-02-24T01:02:01;94123.59;;;3.93;100.00
40384;BME280;26097;42.366;23.818;2023-02-24T01:05:03;94121.72;;;3.97;100.00
40384;BME280;26097;42.366;23.818;2023-02-24T01:08:03;94110.72;;;3.93;100.00
40384;BME280;26097;42.366;23.818;2023-02-24T01:11:05;94115.94;;;3.92;100.00
40384;BME280;26097;42.366;23.818;2023-02-24T01:14:30;94121.94;;;3.92;100.00
40384;BME280;26097;42.366;23.818;2023-02-24T01:17:34;94123.91;;;3.87;100.00
40384;BME280;26097;42.366;23.818;2023-02-24T01:20:34;94114.25;;;3.91;100.00
40384;BME280;26097;42.366;23.818;2023-02-24T01:23:37;94110.94;;;3.89;100.00
40384;BME280;26097;42.366;23.818;2023-02-24T01:26:37;94100.72;;;3.87;100.00
40384;BME280;26097;42.366;23.818;2023-02-24T01:29:38;94105.63;;;3.92;100.00
40384;BME280;26097;42.366;23.818;2023-02-24T01:32:38;94106.53;;;3.91;100.00
40384;BME280;26097;42.366;23.818;2023-02-24T01:35:40;94101.53;;;3.88;100.00
40384;BME280;26097;42.366;23.818;2023-02-24T01:38:40;94103.28;;;3.87;100.00
40384;BME280;26097;42.366;23.818;2023-02-24T01:41:45;94108.28;;;3.90;100.00
40384;BME280;26097;42.366;23.818;2023-02-24T01:47:47;94116.56;;;3.97;100.00
40384;BME280;26097;42.366;23.818;2023-02-24T01:50:48;94109.81;;;3.94;100.00
40384;BME280;26097;42.366;23.818;2023-02-24T01:53:50;94117.91;;;3.86;100.00
40384;BME280;26097;42.366;23.818;2023-02-24T01:56:51;94121.41;;;3.85;100.00
40384;BME280;26097;42.366;23.818;2023-02-24T01:59:53;94117.59;;;3.93;100.00
40384;BME280;26097;42.366;23.818;2023-02-24T02:03:01;94123.53;;;3.95;100.00
40384;BME280;26097;42.366;23.818;2023-02-24T02:06:09;94124.75;;;3.88;100.00
40384;BME280;26097;42.366;23.818;2023-02-24T02:09:11;94108.59;;;3.84;100.00
40384;BME280;26097;42.366;23.818;2023-02-24T02:12:14;94112.75;;;3.86;100.00
40384;BME280;26097;42.366;23.818;2023-02-24T02:15:16;94112.75;;;3.86;100.00
40384;BME280;26097;42.366;23.818;2023-02-24T02:22:05;94111.84;;;3.88;100.00
40384;BME280;26097;42.366;23.818;2023-02-24T02:32:50;94105.63;;;3.92;100.00
40384;BME280;26097;42.366;23.818;2023-02-24T02:35:57;94112.44;;;3.93;100.00
40384;BME280;26097;42.366;23.818;2023-02-24T02:39:14;94119.13;;;3.97;100.00
40384;BME280;26097;42.366;23.818;2023-02-24T02:42:35;94118.28;;;3.96;100.00
40384;BME280;26097;42.366;23.818;2023-02-24T02:45:51;94123.91;;;4.05;100.00
40384;BME280;26097;42.366;23.818;2023-02-24T02:48:58;94124.53;;;4.10;100.00
40384;BME280;26097;42.366;23.818;2023-02-24T02:52:05;94115.00;;;4.10;100.00
40384;BME280;26097;42.366;23.818;2023-02-24T02:58:41;94120.88;;;4.14;100.00
40384;BME280;26097;42.366;23.818;2023-02-24T03:01:45;94121.56;;;4.18;100.00
40384;BME280;26097;42.366;23.818;2023-02-24T03:04:50;94123.97;;;4.21;100.00
40384;BME280;26097;42.366;23.818;2023-02-24T03:07:52;94118.72;;;4.22;100.00
40384;BME280;26097;42.366;23.818;2023-02-24T03:10:59;94110.22;;;4.20;100.00
40384;BME280;26097;42.366;23.818;2023-02-24T03:14:00;94111.91;;;4.21;100.00
40384;BME280;26097;42.366;23.818;2023-02-24T03:17:03;94112.59;;;4.25;100.00
40384;BME280;26097;42.366;23.818;2023-02-24T03:20:22;94112.22;;;4.15;100.00
40384;BME280;26097;42.366;23.818;2023-02-24T03:23:25;94114.56;;;4.20;100.00
40384;BME280;26097;42.366;23.818;2023-02-24T03:26:46;94119.41;;;4.26;100.00
40384;BME280;26097;42.366;23.818;2023-02-24T03:30:10;94120.53;;;4.20;100.00
40384;BME280;26097;42.366;23.818;2023-02-24T03:33:18;94111.06;;;4.21;100.00
40384;BME280;26097;42.366;23.818;2023-02-24T03:36:22;94114.41;;;4.23;100.00
40384;BME280;26097;42.366;23.818;2023-02-24T03:39:24;94116.06;;;4.24;100.00
40384;BME280;26097;42.366;23.818;2023-02-24T03:42:29;94110.09;;;4.23;100.00
40384;BME280;26097;42.366;23.818;2023-02-24T03:45:34;94108.28;;;4.25;100.00
40384;BME280;26097;42.366;23.818;2023-02-24T03:48:41;94109.84;;;4.28;100.00
40384;BME280;26097;42.366;23.818;2023-02-24T03:51:57;94113.44;;;4.25;100.00
40384;BME280;26097;42.366;23.818;2023-02-24T03:58:17;94101.22;;;4.11;100.00
40384;BME280;26097;42.366;23.818;2023-02-24T04:01:36;94105.97;;;4.19;100.00
40384;BME280;26097;42.366;23.818;2023-02-24T04:04:45;94102.66;;;4.17;100.00
40384;BME280;26097;42.366;23.818;2023-02-24T04:14:11;94107.44;;;4.07;100.00
40384;BME280;26097;42.366;23.818;2023-02-24T04:17:21;94095.13;;;4.12;100.00
40384;BME280;26097;42.366;23.818;2023-02-24T04:20:29;94080.44;;;4.14;100.00
40384;BME280;26097;42.366;23.818;2023-02-24T04:23:38;94081.94;;;4.19;100.00
40384;BME280;26097;42.366;23.818;2023-02-24T04:26:42;94086.94;;;4.22;100.00
40384;BME280;26097;42.366;23.818;2023-02-24T04:29:49;94080.94;;;4.21;100.00
40384;BME280;26097;42.366;23.818;2023-02-24T04:32:51;94073.28;;;4.20;100.00
40384;BME280;26097;42.366;23.818;2023-02-24T04:35:52;94071.47;;;4.22;100.00
40384;BME280;26097;42.366;23.818;2023-02-24T04:38:52;94076.03;;;4.17;100.00
40384;BME280;26097;42.366;23.818;2023-02-24T04:41:53;94073.44;;;4.17;100.00
40384;BME280;26097;42.366;23.818;2023-02-24T04:44:54;94067.28;;;4.19;100.00
40384;BME280;26097;42.366;23.818;2023-02-24T04:47:59;94073.28;;;4.20;100.00
40384;BME280;26097;42.366;23.818;2023-02-24T04:51:02;94060.44;;;4.18;100.00
40384;BME280;26097;42.366;23.818;2023-02-24T04:54:05;94067.38;;;4.18;100.00
40384;BME280;26097;42.366;23.818;2023-02-24T04:57:07;94055.63;;;4.12;100.00
40384;BME280;26097;42.366;23.818;2023-02-24T05:00:11;94055.56;;;4.13;100.00
40384;BME280;26097;42.366;23.818;2023-02-24T05:03:22;94059.03;;;4.12;100.00
40384;BME280;26097;42.366;23.818;2023-02-24T05:06:27;94052.97;;;4.13;100.00
40384;BME280;26097;42.366;23.818;2023-02-24T05:09:27;94045.88;;;4.17;100.00
40384;BME280;26097;42.366;23.818;2023-02-24T05:12:30;94046.00;;;4.16;100.00
40384;BME280;26097;42.366;23.818;2023-02-24T05:15:31;94052.81;;;4.17;100.00
40384;BME280;26097;42.366;23.818;2023-02-24T05:18:31;94056.31;;;4.16;100.00
40384;BME280;26097;42.366;23.818;2023-02-24T05:21:36;94057.13;;;4.16;100.00
40384;BME280;26097;42.366;23.818;2023-02-24T05:24:37;94065.88;;;4.13;100.00
40384;BME280;26097;42.366;23.818;2023-02-24T05:27:37;94065.94;;;4.12;100.00
40384;BME280;26097;42.366;23.818;2023-02-24T05:30:38;94066.69;;;4.14;100.00
40384;BME280;26097;42.366;23.818;2023-02-24T05:33:38;94069.97;;;4.18;100.00
40384;BME280;26097;42.366;23.818;2023-02-24T05:36:39;94079.81;;;4.09;100.00
40384;BME280;26097;42.366;23.818;2023-02-24T05:39:39;94073.63;;;4.13;100.00
40384;BME280;26097;42.366;23.818;2023-02-24T05:42:40;94081.94;;;4.19;100.00
40384;BME280;26097;42.366;23.818;2023-02-24T05:45:41;94071.31;;;4.25;100.00
40384;BME280;26097;42.366;23.818;2023-02-24T05:48:42;94066.72;;;4.30;100.00
40384;BME280;26097;42.366;23.818;2023-02-24T05:51:43;94077.81;;;4.32;100.00
40384;BME280;26097;42.366;23.818;2023-02-24T05:54:53;94072.72;;;4.31;100.00
40384;BME280;26097;42.366;23.818;2023-02-24T05:57:54;94072.72;;;4.31;100.00
40384;BME280;26097;42.366;23.818;2023-02-24T08:27:56;94019.03;;;6.53;100.00
40384;BME280;26097;42.366;23.818;2023-02-24T08:30:56;94016.41;;;6.82;100.00
40384;BME280;26097;42.366;23.818;2023-02-24T08:33:58;94019.03;;;6.53;100.00
40384;BME280;26097;42.366;23.818;2023-02-24T08:36:58;94007.75;;;6.68;100.00
40384;BME280;26097;42.366;23.818;2023-02-24T08:40:00;94004.22;;;6.69;100.00
40384;BME280;26097;42.366;23.818;2023-02-24T08:46:18;94005.97;;;7.11;100.00
40384;BME280;26097;42.366;23.818;2023-02-24T08:49:21;94005.97;;;7.11;100.00
40384;BME280;26097;42.366;23.818;2023-02-24T08:52:25;94006.00;;;6.96;100.00
40384;BME280;26097;42.366;23.818;2023-02-24T08:55:26;94002.13;;;7.17;100.00
40384;BME280;26097;42.366;23.818;2023-02-24T08:58:32;94008.78;;;7.48;100.00
40384;BME280;26097;42.366;23.818;2023-02-24T09:01:37;94002.22;;;7.42;100.00
40384;BME280;26097;42.366;23.818;2023-02-24T09:04:38;94002.84;;;7.46;100.00
40384;BME280;26097;42.366;23.818;2023-02-24T09:07:40;94012.22;;;7.62;100.00
40384;BME280;26097;42.366;23.818;2023-02-24T09:10:41;94002.00;;;7.33;100.00
40384;BME280;26097;42.366;23.818;2023-02-24T09:13:45;94004.16;;;6.98;100.00
40384;BME280;26097;42.366;23.818;2023-02-24T09:16:51;94010.72;;;7.04;100.00
40384;BME280;26097;42.366;23.818;2023-02-24T09:23:35;94014.13;;;7.05;100.00
40384;BME280;26097;42.366;23.818;2023-02-24T09:26:45;94008.69;;;7.22;100.00
40384;BME280;26097;42.366;23.818;2023-02-24T09:29:45;93999.72;;;7.41;100.00
40384;BME280;26097;42.366;23.818;2023-02-24T09:32:48;94002.03;;;7.18;100.00
40384;BME280;26097;42.366;23.818;2023-02-24T09:35:56;94000.75;;;6.98;100.00
40384;BME280;26097;42.366;23.818;2023-02-24T09:39:02;93998.03;;;7.27;100.00
40384;BME280;26097;42.366;23.818;2023-02-24T09:42:02;93998.47;;;7.34;100.00
40384;BME280;26097;42.366;23.818;2023-02-24T09:45:15;93982.66;;;7.51;100.00
40384;BME280;26097;42.366;23.818;2023-02-24T09:48:34;93986.19;;;7.50;100.00
40384;BME280;26097;42.366;23.818;2023-02-24T09:51:43;93976.56;;;7.78;100.00
40384;BME280;26097;42.366;23.818;2023-02-24T09:54:49;93973.44;;;7.86;100.00
40384;BME280;26097;42.366;23.818;2023-02-24T10:01:47;93977.50;;;7.90;100.00
40384;BME280;26097;42.366;23.818;2023-02-24T10:08:32;93969.41;;;7.95;100.00
40384;BME280;26097;42.366;23.818;2023-02-24T10:11:33;93966.00;;;8.07;100.00
40384;BME280;26097;42.366;23.818;2023-02-24T10:15:12;93954.97;;;8.17;100.00
40384;BME280;26097;42.366;23.818;2023-02-24T10:18:26;93950.59;;;7.91;100.00
40384;BME280;26097;42.366;23.818;2023-02-24T10:21:37;93946.56;;;8.00;100.00
40384;BME280;26097;42.366;23.818;2023-02-24T10:24:50;93939.19;;;8.07;100.00
40384;BME280;26097;42.366;23.818;2023-02-24T10:34:29;93909.25;;;8.27;100.00
40384;BME280;26097;42.366;23.818;2023-02-24T10:37:32;93911.97;;;8.12;100.00
40384;BME280;26097;42.366;23.818;2023-02-24T10:40:47;93910.47;;;8.34;100.00
40384;BME280;26097;42.366;23.818;2023-02-24T10:43:56;93903.22;;;8.26;100.00
40384;BME280;26097;42.366;23.818;2023-02-24T10:47:04;93907.16;;;8.32;100.00
40384;BME280;26097;42.366;23.818;2023-02-24T10:53:27;93897.34;;;8.49;100.00
40384;BME280;26097;42.366;23.818;2023-02-24T10:56:41;93900.16;;;8.08;100.00
40384;BME280;26097;42.366;23.818;2023-02-24T10:59:56;93901.50;;;8.01;100.00
40384;BME280;26097;42.366;23.818;2023-02-24T11:03:16;93891.13;;;7.88;100.00
40384;BME280;26097;42.366;23.818;2023-02-24T11:06:34;93889.75;;;8.08;100.00
40384;BME280;26097;42.366;23.818;2023-02-24T11:13:15;93882.25;;;8.17;100.00
40384;BME280;26097;42.366;23.818;2023-02-24T11:16:47;93877.72;;;8.07;100.00
40384;BME280;26097;42.366;23.818;2023-02-24T11:20:20;93867.19;;;8.22;100.00
40384;BME280;26097;42.366;23.818;2023-02-24T11:23:25;93868.69;;;8.37;100.00
40384;BME280;26097;42.366;23.818;2023-02-24T11:26:36;93868.69;;;8.37;100.00
40384;BME280;26097;42.366;23.818;2023-02-24T11:30:08;93871.06;;;8.40;100.00
40384;BME280;26097;42.366;23.818;2023-02-24T11:43:18;93834.16;;;8.61;100.00
40384;BME280;26097;42.366;23.818;2023-02-24T11:46:28;93820.06;;;8.52;100.00
40384;BME280;26097;42.366;23.818;2023-02-24T11:49:37;93828.81;;;8.38;100.00
40384;BME280;26097;42.366;23.818;2023-02-24T11:52:42;93831.94;;;8.06;100.00
40384;BME280;26097;42.366;23.818;2023-02-24T11:55:52;93828.25;;;8.22;100.00
40384;BME280;26097;42.366;23.818;2023-02-24T11:59:14;93815.34;;;8.33;100.00
40384;BME280;26097;42.366;23.818;2023-02-24T12:05:56;93804.50;;;8.39;100.00
40384;BME280;26097;42.366;23.818;2023-02-24T12:09:14;93787.84;;;8.55;100.00
40384;BME280;26097;42.366;23.818;2023-02-24T12:12:24;93790.78;;;8.86;100.00
40384;BME280;26097;42.366;23.818;2023-02-24T12:15:28;93797.47;;;9.13;100.00
40384;BME280;26097;42.366;23.818;2023-02-24T12:18:40;93792.69;;;8.95;100.00
40384;BME280;26097;42.366;23.818;2023-02-24T12:21:48;93780.41;;;8.97;100.00
40384;BME280;26097;42.366;23.818;2023-02-24T12:24:51;93777.84;;;9.09;100.00
40384;BME280;26097;42.366;23.818;2023-02-24T12:28:17;93778.03;;;8.94;100.00
40384;BME280;26097;42.366;23.818;2023-02-24T12:45:15;93757.97;;;8.36;100.00
40384;BME280;26097;42.366;23.818;2023-02-24T12:48:27;93765.41;;;8.54;100.00
40384;BME280;26097;42.366;23.818;2023-02-24T12:55:10;93746.53;;;9.22;100.00
40384;BME280;26097;42.366;23.818;2023-02-24T12:58:18;93739.78;;;9.19;100.00
40384;BME280;26097;42.366;23.818;2023-02-24T13:01:31;93740.28;;;9.36;100.00
40384;BME280;26097;42.366;23.818;2023-02-24T13:14:16;93729.88;;;9.36;100.00
40384;BME280;26097;42.366;23.818;2023-02-24T13:17:22;93721.13;;;9.37;100.00
40384;BME280;26097;42.366;23.818;2023-02-24T13:20:33;93718.28;;;9.28;100.00
40384;BME280;26097;42.366;23.818;2023-02-24T13:23:35;93710.00;;;9.35;100.00
40384;BME280;26097;42.366;23.818;2023-02-24T13:26:36;93707.88;;;9.28;100.00
40384;BME280;26097;42.366;23.818;2023-02-24T13:29:50;93706.47;;;9.24;100.00
40384;BME280;26097;42.366;23.818;2023-02-24T13:39:30;93715.00;;;9.26;100.00
40384;BME280;26097;42.366;23.818;2023-02-24T13:42:31;93712.13;;;9.18;100.00
40384;BME280;26097;42.366;23.818;2023-02-24T13:45:36;93712.94;;;9.07;100.00
40384;BME280;26097;42.366;23.818;2023-02-24T13:51:58;93696.75;;;9.15;100.00
40384;BME280;26097;42.366;23.818;2023-02-24T14:02:17;93704.41;;;8.82;100.00
40384;BME280;26097;42.366;23.818;2023-02-24T14:05:35;93692.59;;;8.90;100.00
40384;BME280;26097;42.366;23.818;2023-02-24T14:08:52;93698.41;;;9.16;100.00
40384;BME280;26097;42.366;23.818;2023-02-24T14:11:57;93697.38;;;9.19;100.00
40384;BME280;26097;42.366;23.818;2023-02-24T14:15:00;93693.22;;;9.16;100.00
40384;BME280;26097;42.366;23.818;2023-02-24T14:18:03;93694.75;;;9.07;100.00
40384;BME280;26097;42.366;23.818;2023-02-24T14:21:04;93699.59;;;9.00;100.00
40384;BME280;26097;42.366;23.818;2023-02-24T14:24:11;93689.94;;;9.25;100.00
40384;BME280;26097;42.366;23.818;2023-02-24T14:27:24;93692.50;;;9.03;100.00
40384;BME280;26097;42.366;23.818;2023-02-24T14:30:34;93685.44;;;9.27;100.00
40384;BME280;26097;42.366;23.818;2023-02-24T14:33:37;93685.28;;;9.06;100.00
40384;BME280;26097;42.366;23.818;2023-02-24T14:36:42;93687.97;;;8.70;100.00
40384;BME280;26097;42.366;23.818;2023-02-24T14:39:51;93690.94;;;8.41;100.00
40384;BME280;26097;42.366;23.818;2023-02-24T14:42:53;93696.06;;;8.19;100.00
40384;BME280;26097;42.366;23.818;2023-02-24T14:45:54;93703.59;;;8.22;100.00
40384;BME280;26097;42.366;23.818;2023-02-24T14:48:56;93703.34;;;8.13;100.00
40384;BME280;26097;42.366;23.818;2023-02-24T14:52:08;93697.94;;;7.92;100.00
40384;BME280;26097;42.366;23.818;2023-02-24T14:55:13;93698.59;;;7.83;100.00
40384;BME280;26097;42.366;23.818;2023-02-24T15:04:30;93687.63;;;7.42;100.00
40384;BME280;26097;42.366;23.818;2023-02-24T15:07:33;93696.63;;;7.49;100.00
40384;BME280;26097;42.366;23.818;2023-02-24T15:10:34;93692.00;;;7.41;100.00
40384;BME280;26097;42.366;23.818;2023-02-24T15:13:37;93687.34;;;7.34;100.00
40384;BME280;26097;42.366;23.818;2023-02-24T15:16:41;93677.59;;;7.37;100.00
40384;BME280;26097;42.366;23.818;2023-02-24T15:19:43;93669.69;;;7.39;100.00
40384;BME280;26097;42.366;23.818;2023-02-24T15:22:49;93663.03;;;7.48;100.00
40384;BME280;26097;42.366;23.818;2023-02-24T15:25:49;93668.59;;;7.54;100.00
40384;BME280;26097;42.366;23.818;2023-02-24T15:28:57;93666.63;;;7.58;100.00
40384;BME280;26097;42.366;23.818;2023-02-24T15:31:59;93679.47;;;7.60;100.00
40384;BME280;26097;42.366;23.818;2023-02-24T15:35:00;93667.00;;;7.40;100.00
40384;BME280;26097;42.366;23.818;2023-02-24T15:38:01;93680.00;;;7.27;100.00
40384;BME280;26097;42.366;23.818;2023-02-24T15:41:04;93681.44;;;7.06;100.00
40384;BME280;26097;42.366;23.818;2023-02-24T15:44:05;93681.19;;;6.84;100.00
40384;BME280;26097;42.366;23.818;2023-02-24T15:47:20;93671.13;;;6.67;100.00
40384;BME280;26097;42.366;23.818;2023-02-24T15:50:22;93663.34;;;6.41;100.00
40384;BME280;26097;42.366;23.818;2023-02-24T15:53:23;93667.44;;;6.18;100.00
40384;BME280;26097;42.366;23.818;2023-02-24T15:56:23;93663.06;;;6.05;100.00
40384;BME280;26097;42.366;23.818;2023-02-24T15:59:24;93663.97;;;5.77;100.00
40384;BME280;26097;42.366;23.818;2023-02-24T16:02:24;93674.66;;;5.57;100.00
40384;BME280;26097;42.366;23.818;2023-02-24T16:05:25;93674.38;;;5.35;100.00
40384;BME280;26097;42.366;23.818;2023-02-24T16:08:25;93682.69;;;5.11;100.00
40384;BME280;26097;42.366;23.818;2023-02-24T16:11:27;93681.97;;;4.94;100.00
40384;BME280;26097;42.366;23.818;2023-02-24T16:14:28;93682.91;;;4.79;100.00
40384;BME280;26097;42.366;23.818;2023-02-24T16:17:30;93679.09;;;4.70;100.00
40384;BME280;26097;42.366;23.818;2023-02-24T16:20:31;93681.94;;;4.36;100.00
40384;BME280;26097;42.366;23.818;2023-02-24T16:23:33;93674.88;;;4.24;100.00
40384;BME280;26097;42.366;23.818;2023-02-24T16:26:39;93687.00;;;4.07;100.00
40384;BME280;26097;42.366;23.818;2023-02-24T16:29:40;93682.63;;;3.93;100.00
40384;BME280;26097;42.366;23.818;2023-02-24T16:32:40;93685.25;;;3.77;100.00
40384;BME280;26097;42.366;23.818;2023-02-24T16:35:42;93692.53;;;3.54;100.00
40384;BME280;26097;42.366;23.818;2023-02-24T16:38:44;93684.59;;;3.41;100.00
40384;BME280;26097;42.366;23.818;2023-02-24T16:41:44;93683.63;;;3.28;100.00
40384;BME280;26097;42.366;23.818;2023-02-24T16:44:47;93689.19;;;3.20;100.00
40384;BME280;26097;42.366;23.818;2023-02-24T16:47:54;93701.03;;;3.07;100.00
40384;BME280;26097;42.366;23.818;2023-02-24T16:50:55;93698.34;;;2.92;100.00
40384;BME280;26097;42.366;23.818;2023-02-24T16:53:56;93692.84;;;2.82;100.00
40384;BME280;26097;42.366;23.818;2023-02-24T16:56:57;93694.16;;;2.74;100.00
40384;BME280;26097;42.366;23.818;2023-02-24T16:59:57;93685.78;;;2.70;100.00
40384;BME280;26097;42.366;23.818;2023-02-24T17:02:58;93689.03;;;2.74;100.00
40384;BME280;26097;42.366;23.818;2023-02-24T17:05:58;93689.56;;;2.63;100.00
40384;BME280;26097;42.366;23.818;2023-02-24T17:08:59;93691.13;;;2.49;100.00
40384;BME280;26097;42.366;23.818;2023-02-24T17:11:59;93696.06;;;2.36;100.00
40384;BME280;26097;42.366;23.818;2023-02-24T17:15:00;93695.38;;;2.33;100.00
40384;BME280;26097;42.366;23.818;2023-02-24T17:18:00;93695.22;;;2.36;100.00
40384;BME280;26097;42.366;23.818;2023-02-24T17:21:02;93692.59;;;2.37;100.00
40384;BME280;26097;42.366;23.818;2023-02-24T17:24:03;93694.25;;;2.38;100.00
40384;BME280;26097;42.366;23.818;2023-02-24T17:27:03;93700.44;;;2.34;100.00
40384;BME280;26097;42.366;23.818;2023-02-24T17:30:03;93687.88;;;2.28;100.00
40384;BME280;26097;42.366;23.818;2023-02-24T17:33:04;93688.22;;;2.22;100.00
40384;BME280;26097;42.366;23.818;2023-02-24T17:36:05;93687.72;;;2.13;100.00
40384;BME280;26097;42.366;23.818;2023-02-24T17:39:05;93693.78;;;2.12;100.00
40384;BME280;26097;42.366;23.818;2023-02-24T17:42:05;93683.66;;;2.09;100.00
40384;BME280;26097;42.366;23.818;2023-02-24T17:45:07;93677.31;;;1.99;100.00
40384;BME280;26097;42.366;23.818;2023-02-24T17:48:08;93675.50;;;2.01;100.00
40384;BME280;26097;42.366;23.818;2023-02-24T17:51:15;93674.22;;;2.10;100.00
40384;BME280;26097;42.366;23.818;2023-02-24T17:54:16;93677.31;;;1.99;100.00
40384;BME280;26097;42.366;23.818;2023-02-24T17:57:17;93671.47;;;1.78;100.00
40384;BME280;26097;42.366;23.818;2023-02-24T18:00:17;93669.44;;;1.84;100.00
40384;BME280;26097;42.366;23.818;2023-02-24T18:03:18;93674.28;;;1.91;100.00
40384;BME280;26097;42.366;23.818;2023-02-24T18:06:18;93668.22;;;1.92;100.00
40384;BME280;26097;42.366;23.818;2023-02-24T18:09:19;93667.69;;;1.85;100.00
40384;BME280;26097;42.366;23.818;2023-02-24T18:12:19;93666.88;;;1.84;100.00
40384;BME280;26097;42.366;23.818;2023-02-24T18:15:20;93669.13;;;1.91;100.00
40384;BME280;26097;42.366;23.818;2023-02-24T18:18:20;93665.38;;;1.98;100.00
40384;BME280;26097;42.366;23.818;2023-02-24T18:21:21;93659.22;;;2.00;100.00
40384;BME280;26097;42.366;23.818;2023-02-24T18:24:22;93658.84;;;1.91;100.00
40384;BME280;26097;42.366;23.818;2023-02-24T18:27:22;93662.19;;;1.93;100.00
40384;BME280;26097;42.366;23.818;2023-02-24T18:30:22;93669.97;;;1.91;100.00
40384;BME280;26097;42.366;23.818;2023-02-24T18:33:23;93659.91;;;1.87;100.00
40384;BME280;26097;42.366;23.818;2023-02-24T18:36:24;93667.63;;;1.87;100.00
40384;BME280;26097;42.366;23.818;2023-02-24T18:39:25;93669.44;;;1.84;100.00
40384;BME280;26097;42.366;23.818;2023-02-24T18:42:26;93664.53;;;1.80;100.00
40384;BME280;26097;42.366;23.818;2023-02-24T18:45:26;93665.38;;;1.80;100.00
40384;BME280;26097;42.366;23.818;2023-02-24T18:48:28;93667.94;;;1.80;100.00
40384;BME280;26097;42.366;23.818;2023-02-24T18:51:29;93660.69;;;1.89;100.00
40384;BME280;26097;42.366;23.818;2023-02-24T18:54:29;93658.25;;;1.85;100.00
40384;BME280;26097;42.366;23.818;2023-02-24T18:57:31;93655.47;;;1.90;100.00
40384;BME280;26097;42.366;23.818;2023-02-24T19:00:31;93651.75;;;1.96;100.00
40384;BME280;26097;42.366;23.818;2023-02-24T19:03:31;93652.81;;;1.92;100.00
40384;BME280;26097;42.366;23.818;2023-02-24T19:06:33;93654.25;;;1.97;100.00
40384;BME280;26097;42.366;23.818;2023-02-24T19:09:34;93653.28;;;2.00;100.00
40384;BME280;26097;42.366;23.818;2023-02-24T19:12:34;93652.66;;;1.95;100.00
40384;BME280;26097;42.366;23.818;2023-02-24T19:15:36;93655.38;;;1.92;100.00
40384;BME280;26097;42.366;23.818;2023-02-24T19:18:37;93659.47;;;1.96;100.00
40384;BME280;26097;42.366;23.818;2023-02-24T19:21:37;93661.28;;;1.94;100.00
40384;BME280;26097;42.366;23.818;2023-02-24T19:24:38;93658.25;;;2.03;100.00
40384;BME280;26097;42.366;23.818;2023-02-24T19:27:38;93656.59;;;2.02;100.00
40384;BME280;26097;42.366;23.818;2023-02-24T19:30:39;93655.53;;;2.06;100.00
40384;BME280;26097;42.366;23.818;2023-02-24T19:33:40;93661.53;;;2.07;100.00
40384;BME280;26097;42.366;23.818;2023-02-24T19:36:40;93647.06;;;2.04;100.00
40384;BME280;26097;42.366;23.818;2023-02-24T19:39:40;93651.47;;;2.02;100.00
40384;BME280;26097;42.366;23.818;2023-02-24T19:42:41;93644.88;;;1.96;100.00
40384;BME280;26097;42.366;23.818;2023-02-24T19:45:41;93644.56;;;2.03;100.00
40384;BME280;26097;42.366;23.818;2023-02-24T19:48:43;93656.44;;;2.05;100.00
40384;BME280;26097;42.366;23.818;2023-02-24T19:51:43;93652.00;;;2.09;100.00
40384;BME280;26097;42.366;23.818;2023-02-24T19:54:43;93660.09;;;2.01;100.00
40384;BME280;26097;42.366;23.818;2023-02-24T19:57:44;93657.78;;;1.95;100.00
40384;BME280;26097;42.366;23.818;2023-02-24T20:00:44;93654.94;;;1.83;100.00
40384;BME280;26097;42.366;23.818;2023-02-24T20:03:45;93645.84;;;1.94;100.00
40384;BME280;26097;42.366;23.818;2023-02-24T20:06:46;93657.28;;;1.88;100.00
40384;BME280;26097;42.366;23.818;2023-02-24T20:09:47;93658.19;;;1.87;100.00
40384;BME280;26097;42.366;23.818;2023-02-24T20:12:47;93657.41;;;1.85;100.00
40384;BME280;26097;42.366;23.818;2023-02-24T20:15:48;93652.53;;;1.80;100.00
40384;BME280;26097;42.366;23.818;2023-02-24T20:18:48;93656.00;;;1.79;100.00
40384;BME280;26097;42.366;23.818;2023-02-24T20:21:48;93652.69;;;1.77;100.00
40384;BME280;26097;42.366;23.818;2023-02-24T20:24:49;93657.50;;;1.66;100.00
40384;BME280;26097;42.366;23.818;2023-02-24T20:27:50;93646.63;;;1.61;100.00
40384;BME280;26097;42.366;23.818;2023-02-24T20:30:50;93643.41;;;1.55;100.00